createdAt,value
2022-08-18T00:04:57.308Z,3.30
2022-08-18T00:10:02.349Z,3.40
2022-08-18T00:15:09.829Z,3.28
2022-08-18T00:20:18.047Z,3.47
2022-08-18T00:25:21.320Z,4.18
2022-08-18T00:30:24.418Z,3.50
2022-08-18T00:35:36.851Z,3.97
2022-08-18T00:40:45.812Z,4.28
2022-08-18T00:45:49.148Z,3.80
2022-08-18T00:51:03.887Z,4.68
2022-08-18T00:56:22.334Z,4.00
2022-08-18T01:01:30.764Z,4.32
2022-08-18T01:06:45.294Z,4.07
2022-08-18T01:11:51.459Z,4.35
2022-08-18T01:17:13.419Z,4.70
2022-08-18T01:22:34.910Z,4.72
2022-08-18T01:27:37.890Z,4.63
2022-08-18T01:32:42.160Z,5.13
2022-08-18T01:37:45.152Z,5.00
2022-08-18T01:42:48.169Z,5.47
2022-08-18T01:47:51.492Z,5.70
2022-08-18T01:52:54.444Z,5.40
2022-08-18T01:57:57.250Z,6.15
2022-08-18T02:03:03.005Z,4.93
2022-08-18T02:08:07.450Z,5.25
2022-08-18T02:13:10.973Z,5.65
2022-08-18T02:18:25.954Z,6.90
2022-08-18T02:23:52.127Z,5.73
2022-08-18T02:28:57.484Z,5.15
2022-08-18T02:34:00.224Z,4.78
2022-08-18T02:39:03.730Z,5.68
2022-08-18T02:44:08.808Z,6.57
2022-08-18T02:49:12.866Z,6.72
2022-08-18T02:54:16.346Z,7.35
2022-08-18T02:59:27.696Z,6.90
2022-08-18T03:04:31.679Z,6.53
2022-08-18T03:09:35.862Z,6.93
2022-08-18T03:14:40.156Z,5.95
2022-08-18T03:19:45.221Z,6.55
2022-08-18T03:24:50.856Z,7.45
2022-08-18T03:29:53.804Z,8.27
2022-08-18T03:34:56.681Z,8.05
2022-08-18T03:39:59.596Z,8.50
2022-08-18T03:45:12.535Z,8.45
2022-08-18T03:50:20.760Z,9.18
2022-08-18T03:55:23.610Z,8.95
2022-08-18T04:00:27.612Z,6.70
2022-08-18T04:05:30.491Z,7.80
2022-08-18T04:10:35.532Z,7.50
2022-08-18T04:15:38.348Z,8.23
2022-08-18T04:20:59.597Z,9.60
2022-08-18T04:26:04.269Z,9.43
2022-08-18T04:31:15.264Z,9.20
2022-08-18T04:36:20.468Z,8.93
2022-08-18T04:41:27.220Z,9.05
2022-08-18T04:46:34.870Z,14.57
2022-08-18T04:52:30.936Z,11.05
2022-08-18T04:57:34.733Z,9.07
2022-08-18T05:02:38.287Z,9.02
2022-08-18T05:07:46.906Z,7.95
2022-08-18T05:12:49.763Z,9.13
2022-08-18T05:17:52.767Z,8.13
2022-08-18T05:22:57.440Z,8.20
2022-08-18T05:28:00.267Z,8.80
2022-08-18T05:33:04.379Z,8.00
2022-08-18T05:38:52.636Z,7.05
2022-08-18T05:43:57.466Z,8.07
2022-08-18T05:49:00.344Z,7.00
2022-08-18T05:54:23.910Z,6.78
2022-08-18T05:59:43.122Z,8.20
2022-08-18T06:04:56.104Z,7.07
2022-08-18T06:09:59.492Z,7.60
2022-08-18T06:15:12.234Z,7.53
2022-08-18T06:20:48.168Z,7.55
2022-08-18T06:26:34.415Z,7.63
2022-08-18T06:31:44.907Z,7.32
2022-08-18T06:37:31.024Z,7.28
2022-08-18T06:42:36.525Z,6.85
2022-08-18T06:48:32.501Z,6.95
2022-08-18T06:54:26.679Z,6.95
2022-08-18T06:59:36.820Z,6.93
2022-08-18T07:09:48.531Z,7.30
2022-08-18T07:14:57.438Z,6.63
2022-08-18T07:20:24.643Z,7.25
2022-08-18T07:25:43.191Z,7.00
2022-08-18T07:31:06.438Z,7.03
2022-08-18T07:36:11.178Z,8.85
2022-08-18T07:41:26.845Z,31.02
2022-08-18T07:46:45.291Z,8.10
2022-08-18T07:51:59.621Z,8.13
2022-08-18T07:57:35.388Z,6.40
2022-08-18T08:03:16.468Z,6.20
2022-08-18T08:08:50.461Z,8.40
2022-08-18T08:14:26.996Z,9.55
2022-08-18T08:20:31.984Z,5.57
2022-08-18T08:26:16.449Z,8.23
2022-08-18T08:31:49.710Z,6.20
2022-08-18T08:37:02.638Z,6.13
2022-08-18T08:42:30.382Z,10.77
2022-08-18T08:48:14.869Z,10.20
2022-08-18T08:53:35.587Z,12.43
2022-08-18T08:58:59.435Z,6.60
2022-08-18T09:04:57.967Z,5.75
2022-08-18T09:10:57.411Z,10.38
2022-08-18T09:16:21.615Z,8.00
2022-08-18T09:21:46.413Z,6.07
2022-08-18T09:27:16.403Z,9.23
2022-08-18T09:32:19.205Z,5.85
2022-08-18T09:37:38.217Z,15.10
2022-08-18T09:43:31.300Z,5.85
2022-08-18T09:54:14.648Z,11.60
2022-08-18T09:59:32.773Z,6.65
2022-08-18T10:04:50.633Z,5.18
2022-08-18T10:10:58.858Z,11.05
2022-08-18T10:15:46.424Z,7.20
2022-08-18T10:21:18.886Z,7.20
2022-08-18T10:26:34.318Z,6.75
2022-08-18T10:32:01.681Z,4.45
2022-08-18T10:37:39.872Z,6.38
2022-08-18T10:43:57.589Z,5.27
2022-08-18T10:49:13.006Z,4.65
2022-08-18T10:54:56.102Z,9.02
2022-08-18T11:00:15.591Z,8.15
2022-08-18T11:05:26.009Z,4.55
2022-08-18T11:11:27.371Z,3.55
2022-08-18T11:16:54.363Z,3.78
2022-08-18T11:21:57.582Z,3.20
2022-08-18T11:27:17.382Z,3.63
2022-08-18T11:32:39.480Z,3.42
2022-08-18T11:38:12.537Z,3.22
2022-08-18T11:43:41.354Z,3.33
2022-08-18T11:48:53.506Z,3.22
2022-08-18T11:54:04.993Z,3.28
2022-08-18T11:59:54.868Z,3.10
2022-08-18T12:10:29.335Z,3.60
2022-08-18T12:15:44.148Z,3.60
2022-08-18T12:20:51.262Z,3.05
2022-08-18T12:25:54.722Z,3.13
2022-08-18T12:30:57.987Z,2.97
2022-08-18T12:36:02.383Z,3.00
2022-08-18T12:41:11.867Z,3.00
2022-08-18T12:46:15.252Z,2.78
2022-08-18T12:51:18.586Z,2.95
2022-08-18T12:56:31.132Z,2.63
2022-08-18T13:01:39.760Z,2.70
2022-08-18T13:07:00.457Z,2.90
2022-08-18T13:12:09.973Z,2.78
2022-08-18T13:17:30.060Z,2.42
2022-08-18T13:22:40.249Z,3.40
2022-08-18T13:27:45.178Z,2.95
2022-08-18T13:33:00.438Z,3.25
2022-08-18T13:38:14.624Z,3.50
2022-08-18T13:43:35.912Z,3.10
2022-08-18T13:48:41.636Z,3.55
2022-08-18T13:53:57.602Z,3.75
2022-08-18T13:59:07.701Z,3.40
2022-08-18T14:04:14.848Z,2.90
2022-08-18T14:09:19.950Z,3.13
2022-08-18T14:14:31.369Z,3.30
2022-08-18T14:19:52.884Z,3.47
2022-08-18T14:25:14.666Z,2.75
2022-08-18T14:30:25.265Z,3.20
2022-08-18T14:36:03.712Z,3.28
2022-08-18T14:40:51.758Z,3.17
2022-08-18T14:45:58.029Z,2.90
2022-08-18T14:51:03.099Z,3.17
2022-08-18T14:56:06.790Z,3.28
2022-08-18T15:01:13.363Z,3.00
2022-08-18T15:06:23.162Z,3.17
2022-08-18T15:11:31.998Z,2.88
2022-08-18T15:16:39.780Z,3.00
2022-08-18T15:22:01.587Z,3.30
2022-08-18T15:27:10.259Z,3.08
2022-08-18T15:32:17.758Z,3.42
2022-08-18T15:37:24.475Z,3.03
2022-08-18T15:42:27.448Z,3.30
2022-08-18T15:47:33.949Z,2.60
2022-08-18T15:52:37.005Z,2.90
2022-08-18T15:57:44.603Z,2.83
2022-08-18T16:02:57.679Z,2.42
2022-08-18T16:08:01.345Z,2.45
2022-08-18T16:13:07.212Z,3.10
2022-08-18T16:18:10.732Z,2.50
2022-08-18T16:23:14.149Z,2.05
2022-08-18T16:28:17.167Z,2.20
2022-08-18T16:33:19.891Z,2.30
2022-08-18T16:38:24.139Z,2.22
2022-08-18T16:43:27.302Z,2.08
2022-08-18T16:48:31.059Z,2.35
2022-08-18T16:53:40.142Z,2.53
2022-08-18T16:59:02.791Z,2.60
2022-08-18T17:04:13.525Z,2.30
2022-08-18T17:09:20.052Z,2.80
2022-08-18T17:14:28.083Z,2.90
2022-08-18T17:19:34.664Z,3.25
2022-08-18T17:24:38.219Z,3.63
2022-08-18T17:29:54.787Z,3.70
2022-08-18T17:35:42.873Z,2.90
2022-08-18T17:40:53.930Z,3.15
2022-08-18T17:46:04.546Z,2.85
2022-08-18T17:51:34.405Z,2.80
2022-08-18T17:56:49.694Z,2.72
2022-08-18T18:02:29.570Z,2.42
2022-08-18T18:07:43.669Z,2.40
2022-08-18T18:12:46.491Z,2.38
2022-08-18T18:17:49.372Z,2.45
2022-08-18T18:22:52.599Z,2.15
2022-08-18T18:27:55.413Z,2.95
2022-08-18T18:33:13.586Z,2.60
2022-08-18T18:38:38.029Z,2.38
2022-08-18T18:43:46.577Z,2.38
2022-08-18T18:49:26.646Z,3.17
2022-08-18T18:54:49.762Z,2.65
2022-08-18T19:00:35.624Z,2.80
2022-08-18T19:05:45.596Z,2.30
2022-08-18T19:11:12.065Z,2.83
2022-08-18T19:16:24.662Z,2.53
2022-08-18T19:22:03.828Z,2.15
2022-08-18T19:26:59.909Z,2.40
2022-08-18T19:32:20.108Z,2.67
2022-08-18T19:37:34.138Z,3.08
2022-08-18T19:42:40.128Z,3.35
2022-08-18T19:47:51.160Z,2.88
2022-08-18T19:53:15.976Z,3.13
2022-08-18T19:59:17.830Z,3.45
2022-08-18T20:04:59.513Z,3.20
2022-08-18T20:10:27.428Z,3.75
2022-08-18T20:15:31.332Z,3.50
2022-08-18T20:20:38.318Z,3.22
2022-08-18T20:25:44.276Z,4.45
2022-08-18T20:31:16.637Z,4.47
2022-08-18T20:36:36.669Z,3.97
2022-08-18T20:41:45.663Z,3.95
2022-08-18T20:47:16.220Z,4.68
2022-08-18T20:52:55.737Z,4.32
2022-08-18T20:58:08.089Z,5.60
2022-08-18T21:03:22.784Z,4.03
2022-08-18T21:08:33.146Z,14.90
2022-08-18T21:13:41.069Z,7.93
2022-08-18T21:18:51.745Z,6.97
2022-08-18T21:23:58.820Z,10.73
2022-08-18T21:29:09.132Z,6.05
2022-08-18T21:34:44.405Z,9.15
2022-08-18T21:39:55.591Z,6.88
2022-08-18T21:45:01.107Z,11.00
2022-08-18T21:50:14.935Z,9.57
2022-08-18T21:55:33.672Z,8.10
2022-08-18T22:00:46.301Z,6.07
2022-08-18T22:06:35.495Z,5.38
2022-08-18T22:12:01.980Z,5.70
2022-08-18T22:17:32.712Z,5.65
2022-08-18T22:22:54.526Z,5.68
2022-08-18T22:27:59.279Z,5.43
2022-08-18T22:33:02.113Z,5.70
2022-08-18T22:38:05.268Z,5.35
2022-08-18T22:43:08.062Z,5.35
2022-08-18T22:48:12.226Z,6.80
2022-08-18T22:53:16.879Z,6.40
2022-08-18T22:58:26.900Z,6.07
2022-08-18T23:03:31.387Z,5.82
2022-08-18T23:08:54.926Z,5.30
2022-08-18T23:14:03.047Z,5.80
2022-08-18T23:19:06.481Z,6.30
2022-08-18T23:24:13.829Z,6.28
2022-08-18T23:29:17.386Z,5.78
2022-08-18T23:34:23.963Z,5.35
2022-08-18T23:39:29.088Z,5.97
2022-08-18T23:44:32.954Z,5.68
2022-08-18T23:49:36.817Z,6.10
2022-08-18T23:54:39.615Z,6.15
2022-08-18T23:59:42.416Z,5.78
